SCAR METAR and TAF weather

Enter ICAO airport designator
Station Type Date Time Source
SCAR METAR 2019/02/21 00:00 UTC NOAA

SCAR 210000Z 28005KT CAVOK 23/16 Q1013


Station Type Date Time Source
SCAR Decoded METAR 2019/02/21 00:00 UTC NOAA

Arica, Chile (SCAR) 18-20S 070-20W 58M
Feb 20, 2019 - 07:00 PM EST / 2019.02.21 0000 UTC
Wind: from the W (280 degrees) at 6 MPH (5 KT):0
Visibility: greater than 7 mile(s):0
Temperature: 73 F (23 C)
Dew Point: 60 F (16 C)
Relative Humidity: 64%
Pressure (altimeter): 29.91 in. Hg (1013 hPa)
ob: SCAR 210000Z 28005KT CAVOK 23/16 Q1013
cycle: 0

Station Type Date Time Source
SCAR TAF 2019/02/21 00:00 UTC NOAA

TAF SCAR 202230Z 2100/2124 19008KT CAVOK TN21/2106Z TX27/2117Z
BECMG 2102/2104 06004KT
BECMG 2116/2118 21015KT
BECMG 2123/2124 18005KT


Example: see airport list